createdAt,value
2019-04-11T00:01:02.492Z,3.33
2019-04-11T00:03:31.049Z,2.47
2019-04-11T00:05:59.670Z,2.90
2019-04-11T00:08:28.396Z,2.57
2019-04-11T00:10:57.540Z,2.30
2019-04-11T00:13:28.425Z,2.10
2019-04-11T00:15:57.340Z,2.20
2019-04-11T00:18:27.074Z,5.10
2019-04-11T00:20:56.807Z,7.40
2019-04-11T00:23:25.979Z,4.40
2019-04-11T00:25:55.959Z,3.40
2019-04-11T00:28:25.695Z,5.13
2019-04-11T00:30:54.704Z,4.90
2019-04-11T00:33:24.704Z,6.60
2019-04-11T00:35:55.672Z,5.53
2019-04-11T00:38:25.587Z,5.43
2019-04-11T00:40:54.508Z,4.00
2019-04-11T00:43:31.690Z,3.90
2019-04-11T00:45:54.064Z,4.00
2019-04-11T00:48:23.791Z,3.57
2019-04-11T00:50:53.718Z,2.70
2019-04-11T00:53:22.590Z,2.83
2019-04-11T00:55:51.525Z,3.10
2019-04-11T00:58:21.289Z,2.20
2019-04-11T01:00:50.002Z,3.27
2019-04-11T01:03:20.039Z,2.13
2019-04-11T01:05:49.931Z,5.17
2019-04-11T01:08:19.727Z,4.23
2019-04-11T01:10:51.802Z,2.00
2019-04-11T01:13:20.940Z,2.00
2019-04-11T01:15:57.656Z,1.90
2019-04-11T01:18:26.217Z,1.90
2019-04-11T01:20:55.711Z,1.80
2019-04-11T01:23:24.516Z,2.20
2019-04-11T01:25:55.041Z,2.00
2019-04-11T01:28:24.726Z,1.70
2019-04-11T01:31:05.219Z,2.00
2019-04-11T01:33:33.916Z,2.17
2019-04-11T01:36:02.797Z,2.57
2019-04-11T01:38:33.264Z,2.17
2019-04-11T01:41:02.444Z,1.90
2019-04-11T01:43:32.371Z,2.13
2019-04-11T01:46:02.163Z,2.10
2019-04-11T01:48:47.942Z,1.97
2019-04-11T01:51:17.811Z,2.20
2019-04-11T01:53:46.949Z,2.20
2019-04-11T01:56:16.805Z,2.20
2019-04-11T01:58:46.774Z,2.80
2019-04-11T02:01:20.949Z,2.80
2019-04-11T02:03:57.356Z,2.97
2019-04-11T02:06:26.771Z,3.30
2019-04-11T02:08:55.681Z,2.73
2019-04-11T02:11:25.541Z,2.10
2019-04-11T02:14:05.953Z,2.53
2019-04-11T02:16:25.197Z,2.47
2019-04-11T02:18:54.047Z,2.80
2019-04-11T02:21:22.905Z,3.37
2019-04-11T02:24:08.447Z,4.93
2019-04-11T02:26:38.680Z,5.17
2019-04-11T02:29:07.305Z,3.90
2019-04-11T02:31:36.927Z,6.27
2019-04-11T02:34:08.386Z,4.93
2019-04-11T02:36:38.333Z,3.50
2019-04-11T02:39:12.936Z,3.53
2019-04-11T02:41:40.090Z,5.40
2019-04-11T02:44:27.135Z,3.90
2019-04-11T02:46:47.897Z,3.83
2019-04-11T02:49:10.281Z,4.07
2019-04-11T02:51:39.768Z,3.77
2019-04-11T02:54:08.864Z,3.10
2019-04-11T02:56:37.881Z,3.63
2019-04-11T02:59:09.164Z,3.20
2019-04-11T03:01:37.763Z,3.60
2019-04-11T03:04:07.395Z,4.00
2019-04-11T03:06:36.484Z,4.13
2019-04-11T03:09:07.131Z,3.07
2019-04-11T03:11:36.637Z,4.07
2019-04-11T03:14:05.335Z,4.33
2019-04-11T03:16:46.214Z,6.13
2019-04-11T03:19:21.233Z,7.67
2019-04-11T03:21:39.232Z,7.00
2019-04-11T03:24:08.327Z,5.47
2019-04-11T03:26:37.626Z,6.20
2019-04-11T03:29:08.493Z,5.17
2019-04-11T03:39:29.013Z,3.53
2019-04-11T03:41:54.658Z,3.50
2019-04-11T03:44:20.528Z,3.77
2019-04-11T03:46:52.688Z,3.20
2019-04-11T03:49:22.283Z,3.60
2019-04-11T03:51:43.640Z,3.70
2019-04-11T03:54:13.707Z,3.40
2019-04-11T03:56:43.315Z,4.30
2019-04-11T03:59:16.381Z,4.10
2019-04-11T04:01:44.416Z,4.50
2019-04-11T04:04:15.485Z,6.80
2019-04-11T04:06:45.837Z,4.17
2019-04-11T04:09:16.332Z,5.23
2019-04-11T04:11:46.984Z,5.17
2019-04-11T04:14:24.287Z,6.10
2019-04-11T04:16:57.333Z,5.90
2019-04-11T04:19:37.704Z,8.05
2019-04-11T04:22:08.865Z,8.90
2019-04-11T04:24:40.487Z,9.77
2019-04-11T04:27:10.086Z,9.63
2019-04-11T04:29:41.120Z,7.73
2019-04-11T04:32:09.970Z,5.00
2019-04-11T04:34:40.157Z,5.47
2019-04-11T04:37:09.172Z,5.03
2019-04-11T04:39:39.649Z,6.83
2019-04-11T04:42:19.453Z,7.43
2019-04-11T04:44:40.890Z,8.57
2019-04-11T04:47:20.993Z,9.47
2019-04-11T04:49:41.232Z,11.03
2019-04-11T04:52:12.352Z,10.90
2019-04-11T04:54:41.061Z,9.07
2019-04-11T04:57:12.868Z,6.60
2019-04-11T04:59:42.344Z,8.33
2019-04-11T05:02:12.647Z,10.60
2019-04-11T05:04:40.978Z,7.47
2019-04-11T05:07:09.750Z,7.63
2019-04-11T05:09:40.440Z,10.03
2019-04-11T05:12:09.980Z,7.43
2019-04-11T05:14:39.311Z,8.83
2019-04-11T05:17:08.776Z,8.40
2019-04-11T05:19:38.358Z,7.07
2019-04-11T05:22:08.473Z,7.23
2019-04-11T05:24:37.217Z,7.47
2019-04-11T05:27:06.337Z,7.70
2019-04-11T05:29:35.636Z,8.33
2019-04-11T05:32:05.204Z,7.30
2019-04-11T05:34:35.102Z,6.80
2019-04-11T05:37:04.053Z,7.83
2019-04-11T05:39:33.780Z,5.53
2019-04-11T05:42:04.966Z,5.17
2019-04-11T05:44:37.397Z,6.47
2019-04-11T05:47:06.747Z,8.00
2019-04-11T05:49:41.655Z,7.40
2019-04-11T05:52:12.177Z,6.47
2019-04-11T05:54:46.404Z,6.00
2019-04-11T05:57:13.445Z,7.25
2019-04-11T05:59:45.972Z,14.03
2019-04-11T06:02:28.931Z,9.20
2019-04-11T06:05:05.230Z,7.57
2019-04-11T06:07:41.017Z,8.87
2019-04-11T06:10:11.216Z,9.53
2019-04-11T06:12:56.881Z,6.80
2019-04-11T06:15:31.048Z,8.70
2019-04-11T06:18:02.695Z,8.13
2019-04-11T06:20:33.425Z,7.47
2019-04-11T06:23:12.939Z,6.70
2019-04-11T06:25:59.238Z,7.23
2019-04-11T06:28:30.764Z,7.10
2019-04-11T06:31:18.162Z,7.27
2019-04-11T06:33:49.062Z,7.03
2019-04-11T06:36:36.963Z,24.43
2019-04-11T06:39:27.407Z,8.43
2019-04-11T06:42:07.691Z,6.27
2019-04-11T06:44:43.939Z,8.20
2019-04-11T06:47:30.279Z,8.30
2019-04-11T06:50:00.674Z,6.53
2019-04-11T06:52:29.262Z,5.70
2019-04-11T06:54:59.516Z,7.33
2019-04-11T06:57:34.091Z,10.23
2019-04-11T07:00:05.367Z,8.37
2019-04-11T07:02:36.847Z,6.97
2019-04-11T07:05:11.139Z,6.20
2019-04-11T07:07:43.019Z,6.40
2019-04-11T07:10:13.667Z,6.20
2019-04-11T07:12:44.070Z,6.30
2019-04-11T07:15:25.123Z,5.90
2019-04-11T07:18:12.066Z,6.10
2019-04-11T07:20:58.574Z,7.97
2019-04-11T07:23:46.897Z,8.10
2019-04-11T07:26:27.341Z,8.30
2019-04-11T07:28:58.611Z,6.33
2019-04-11T07:31:48.193Z,6.90
2019-04-11T07:34:38.248Z,8.03
2019-04-11T07:37:14.934Z,5.20
2019-04-11T07:40:15.917Z,5.80
2019-04-11T07:42:59.428Z,5.83
2019-04-11T07:45:30.334Z,6.70
2019-04-11T07:48:15.502Z,10.00
2019-04-11T07:50:44.443Z,6.07
2019-04-11T07:53:14.926Z,7.70
2019-04-11T07:55:44.958Z,8.33
2019-04-11T07:58:21.512Z,5.40
2019-04-11T08:01:10.848Z,6.00
2019-04-11T08:03:57.928Z,5.90
2019-04-11T08:06:45.607Z,16.17
2019-04-11T08:09:16.175Z,5.83
2019-04-11T08:11:47.800Z,5.70
2019-04-11T08:14:30.775Z,4.83
2019-04-11T08:17:07.297Z,4.62
2019-04-11T08:19:55.261Z,4.33
2019-04-11T08:22:27.175Z,5.27
2019-04-11T08:24:58.702Z,5.47
2019-04-11T08:27:54.680Z,10.53
2019-04-11T08:30:19.741Z,5.70
2019-04-11T08:32:52.366Z,4.37
2019-04-11T08:35:34.938Z,5.20
2019-04-11T08:38:10.220Z,3.52
2019-04-11T08:40:55.611Z,3.80
2019-04-11T08:43:29.118Z,3.20
2019-04-11T08:45:59.873Z,4.30
2019-04-11T08:48:30.521Z,3.70
2019-04-11T08:51:09.764Z,3.17
2019-04-11T08:53:45.774Z,4.53
2019-04-11T08:56:16.761Z,3.93
2019-04-11T08:59:11.346Z,3.60
2019-04-11T09:01:40.836Z,3.43
2019-04-11T09:04:27.561Z,3.27
2019-04-11T09:06:57.840Z,2.43
2019-04-11T09:09:29.280Z,3.80
2019-04-11T09:12:00.444Z,3.77
2019-04-11T09:14:48.543Z,3.77
2019-04-11T09:17:20.991Z,3.43
2019-04-11T09:20:07.542Z,2.98
2019-04-11T09:22:41.513Z,4.57
2019-04-11T09:25:12.801Z,5.50
2019-04-11T09:27:58.282Z,4.30
2019-04-11T09:30:32.571Z,4.07
2019-04-11T09:33:15.170Z,3.67
2019-04-11T09:35:45.467Z,3.45
2019-04-11T09:38:18.412Z,3.27
2019-04-11T09:40:50.009Z,3.33
2019-04-11T09:43:29.848Z,2.50
2019-04-11T09:46:10.242Z,2.80
2019-04-11T09:48:42.082Z,4.30
2019-04-11T09:51:26.488Z,2.80
2019-04-11T09:54:06.111Z,3.40
2019-04-11T09:56:43.037Z,4.13
2019-04-11T09:59:25.362Z,3.57
2019-04-11T10:02:10.752Z,2.17
2019-04-11T10:04:41.666Z,4.92
2019-04-11T10:07:21.720Z,2.77
2019-04-11T10:09:58.319Z,3.52
2019-04-11T10:12:40.738Z,2.02
2019-04-11T10:15:11.420Z,2.40
2019-04-11T10:17:42.536Z,1.82
2019-04-11T10:20:13.150Z,2.95
2019-04-11T10:23:03.251Z,3.45
2019-04-11T10:25:35.040Z,3.52
2019-04-11T10:28:21.853Z,3.20
2019-04-11T10:31:02.141Z,3.12
2019-04-11T10:33:33.126Z,3.65
2019-04-11T10:36:03.496Z,6.20
2019-04-11T10:38:32.988Z,3.80
2019-04-11T10:41:20.811Z,4.43
2019-04-11T10:43:49.748Z,3.47
2019-04-11T10:46:19.961Z,3.53
2019-04-11T10:48:50.570Z,4.03
2019-04-11T10:51:38.162Z,4.13
2019-04-11T10:54:08.463Z,3.67
2019-04-11T10:56:39.358Z,3.57
2019-04-11T10:59:09.076Z,4.20
2019-04-11T11:01:46.418Z,4.17
2019-04-11T11:04:18.008Z,3.30
2019-04-11T11:06:48.641Z,2.57
2019-04-11T11:09:26.115Z,2.87
2019-04-11T11:11:56.807Z,2.43
2019-04-11T11:14:27.370Z,3.50
2019-04-11T11:17:04.534Z,2.90
2019-04-11T11:20:07.775Z,3.93
2019-04-11T11:22:23.794Z,3.20
2019-04-11T11:25:12.698Z,3.50
2019-04-11T11:27:42.200Z,4.27
2019-04-11T11:30:29.583Z,4.93
2019-04-11T11:32:58.615Z,3.17
2019-04-11T11:35:45.817Z,3.77
2019-04-11T11:38:16.194Z,3.00
2019-04-11T11:41:02.381Z,2.87
2019-04-11T11:43:32.964Z,3.07
2019-04-11T11:46:16.090Z,3.30
2019-04-11T11:48:49.945Z,6.30
2019-04-11T11:51:25.670Z,4.92
2019-04-11T11:54:11.513Z,3.33
2019-04-11T11:56:42.531Z,6.03
2019-04-11T11:59:19.638Z,3.53
2019-04-11T12:02:02.400Z,4.67
2019-04-11T12:04:44.637Z,3.90
2019-04-11T12:07:18.849Z,2.50
2019-04-11T12:09:55.108Z,7.77
2019-04-11T12:12:29.544Z,4.57
2019-04-11T12:15:01.363Z,5.80
2019-04-11T12:17:32.494Z,5.20
2019-04-11T12:20:11.136Z,3.33
2019-04-11T12:22:38.319Z,3.37
2019-04-11T12:25:17.759Z,4.00
2019-04-11T12:27:52.045Z,2.93
2019-04-11T12:30:30.866Z,4.50
2019-04-11T12:33:03.449Z,4.00
2019-04-11T12:35:33.674Z,5.30
2019-04-11T12:38:10.005Z,5.57
2019-04-11T12:40:43.128Z,5.87
2019-04-11T12:43:13.324Z,3.90
2019-04-11T12:46:00.315Z,4.20
2019-04-11T12:48:30.658Z,3.93
2019-04-11T12:51:01.071Z,4.00
2019-04-11T12:53:29.690Z,3.33
2019-04-11T12:56:11.923Z,4.07
2019-04-11T12:58:42.250Z,2.98
2019-04-11T13:01:15.881Z,3.20
2019-04-11T13:04:01.437Z,3.43
2019-04-11T13:06:40.774Z,3.80
2019-04-11T13:09:26.298Z,4.30
2019-04-11T13:12:12.890Z,6.33
2019-04-11T13:14:45.799Z,6.27
2019-04-11T13:17:16.140Z,3.93
2019-04-11T13:20:04.907Z,3.40
2019-04-11T13:22:33.354Z,3.40
2019-04-11T13:25:12.516Z,3.33
2019-04-11T13:27:42.867Z,3.03
2019-04-11T13:30:25.710Z,3.37
2019-04-11T13:32:55.921Z,3.45
2019-04-11T13:35:38.198Z,3.33
2019-04-11T13:38:11.272Z,5.22
2019-04-11T13:40:41.729Z,2.40
2019-04-11T13:43:24.461Z,4.33
2019-04-11T13:46:10.975Z,4.33
2019-04-11T13:48:53.250Z,5.23
2019-04-11T13:51:32.299Z,2.62
2019-04-11T13:54:14.456Z,3.40
2019-04-11T13:57:00.795Z,4.12
2019-04-11T13:59:36.810Z,5.77
2019-04-11T14:02:16.644Z,4.13
2019-04-11T14:04:56.333Z,2.70
2019-04-11T14:07:26.754Z,3.98
2019-04-11T14:09:56.542Z,3.58
2019-04-11T14:12:26.341Z,6.22
2019-04-11T14:14:56.616Z,2.77
2019-04-11T14:17:41.640Z,6.25
2019-04-11T14:20:29.561Z,3.87
2019-04-11T14:23:05.183Z,6.70
2019-04-11T14:25:39.036Z,7.15
2019-04-11T14:28:10.815Z,7.60
2019-04-11T14:30:55.693Z,5.43
2019-04-11T14:33:28.050Z,3.08
2019-04-11T14:36:14.531Z,3.27
2019-04-11T14:38:47.581Z,2.72
2019-04-11T14:41:35.147Z,2.70
2019-04-11T14:44:05.515Z,2.62
2019-04-11T14:46:53.989Z,5.33
2019-04-11T14:49:24.091Z,4.45
2019-04-11T14:51:58.586Z,4.42
2019-04-11T14:54:32.087Z,4.10
2019-04-11T14:57:05.248Z,3.55
2019-04-11T14:59:47.381Z,4.53
2019-04-11T15:02:17.730Z,4.70
2019-04-11T15:04:54.119Z,7.87
2019-04-11T15:07:22.748Z,3.75
2019-04-11T15:10:09.486Z,5.03
2019-04-11T15:12:40.732Z,6.00
2019-04-11T15:15:26.445Z,2.83
2019-04-11T15:17:56.583Z,3.80
2019-04-11T15:20:33.839Z,3.30
2019-04-11T15:23:01.857Z,4.60
2019-04-11T15:25:35.683Z,5.55
2019-04-11T15:28:15.556Z,3.25
2019-04-11T15:30:54.874Z,5.05
2019-04-11T15:33:41.490Z,6.40
2019-04-11T15:36:27.546Z,3.90
2019-04-11T15:39:04.968Z,4.80
2019-04-11T15:41:33.938Z,4.80
2019-04-11T15:44:21.978Z,4.13
2019-04-11T15:46:50.848Z,7.20
2019-04-11T15:49:31.190Z,6.10
2019-04-11T15:52:01.480Z,5.43
2019-04-11T15:54:31.718Z,3.67
2019-04-11T15:57:01.979Z,4.27
2019-04-11T15:59:38.041Z,3.20
2019-04-11T16:02:18.102Z,3.37
2019-04-11T16:04:48.504Z,2.87
2019-04-11T16:07:24.774Z,3.63
2019-04-11T16:09:54.150Z,3.07
2019-04-11T16:12:30.163Z,5.57
2019-04-11T16:15:17.611Z,7.23
2019-04-11T16:18:05.815Z,5.47
2019-04-11T16:20:35.019Z,12.70
2019-04-11T16:23:07.973Z,4.73
2019-04-11T16:25:36.777Z,4.20
2019-04-11T16:28:13.273Z,6.13
2019-04-11T16:30:43.560Z,5.80
2019-04-11T16:33:26.098Z,7.10
2019-04-11T16:35:59.319Z,7.87
2019-04-11T16:38:35.765Z,8.10
2019-04-11T16:41:23.949Z,5.00
2019-04-11T16:43:55.319Z,4.13
2019-04-11T16:46:41.481Z,4.20
2019-04-11T16:49:10.121Z,9.57
2019-04-11T16:51:38.876Z,6.50
2019-04-11T16:54:09.608Z,3.77
2019-04-11T16:56:37.756Z,6.17
2019-04-11T16:59:07.158Z,6.33
2019-04-11T17:01:35.786Z,7.07
2019-04-11T17:04:04.547Z,4.87
2019-04-11T17:06:51.058Z,5.27
2019-04-11T17:09:30.038Z,4.40
2019-04-11T17:11:58.736Z,4.73
2019-04-11T17:14:28.192Z,6.13
2019-04-11T17:17:00.655Z,4.10
2019-04-11T17:19:28.182Z,5.20
2019-04-11T17:21:57.173Z,3.77
2019-04-11T17:24:25.856Z,5.33
2019-04-11T17:26:54.391Z,7.13
2019-04-11T17:29:24.895Z,4.33
2019-04-11T17:31:55.595Z,3.97
2019-04-11T17:34:23.726Z,3.63
2019-04-11T17:36:52.366Z,5.43
2019-04-11T17:39:21.135Z,3.90
2019-04-11T17:41:49.703Z,3.83
2019-04-11T17:44:20.174Z,3.83
2019-04-11T17:47:03.607Z,5.20
2019-04-11T17:49:42.241Z,3.97
2019-04-11T17:52:07.499Z,3.13
2019-04-11T17:55:37.329Z,4.43
2019-04-11T18:00:00.472Z,5.20
2019-04-11T18:02:29.327Z,4.73
2019-04-11T18:04:59.059Z,7.93
2019-04-11T18:07:27.986Z,4.77
2019-04-11T18:09:56.759Z,7.63
2019-04-11T18:12:26.240Z,7.67
2019-04-11T18:15:16.462Z,6.07
2019-04-11T18:17:45.046Z,4.50
2019-04-11T18:20:14.155Z,4.90
2019-04-11T18:22:43.741Z,4.47
2019-04-11T18:25:13.441Z,3.80
2019-04-11T18:27:42.002Z,4.57
2019-04-11T18:30:12.290Z,5.57
2019-04-11T18:32:41.399Z,3.80
2019-04-11T18:35:13.029Z,3.60
2019-04-11T18:37:42.485Z,7.47
2019-04-11T18:40:12.485Z,3.50
2019-04-11T18:42:41.291Z,4.90
2019-04-11T18:45:10.565Z,3.90
2019-04-11T18:47:39.247Z,3.37
2019-04-11T18:50:09.126Z,3.97
2019-04-11T18:52:37.769Z,3.00
2019-04-11T18:55:07.655Z,3.53
2019-04-11T18:57:36.309Z,4.23
2019-04-11T19:00:08.201Z,4.40
2019-04-11T19:02:37.921Z,3.83
2019-04-11T19:05:07.959Z,4.50
2019-04-11T19:07:36.623Z,6.67
2019-04-11T19:10:08.362Z,4.27
2019-04-11T19:12:36.966Z,6.23
2019-04-11T19:15:07.983Z,4.73
2019-04-11T19:17:36.694Z,3.73
2019-04-11T19:20:07.064Z,4.33
2019-04-11T19:22:38.145Z,3.83
2019-04-11T19:25:06.329Z,5.60
2019-04-11T19:27:34.980Z,4.30
2019-04-11T19:30:05.819Z,4.27
2019-04-11T19:32:34.696Z,4.90
2019-04-11T19:35:03.783Z,4.60
2019-04-11T19:37:35.750Z,4.50
2019-04-11T19:40:05.552Z,4.22
2019-04-11T19:42:35.815Z,3.20
2019-04-11T19:45:06.951Z,4.93
2019-04-11T19:47:35.518Z,6.00
2019-04-11T19:50:07.867Z,3.43
2019-04-11T19:52:45.256Z,4.67
2019-04-11T19:55:21.074Z,3.70
2019-04-11T19:57:49.782Z,2.80
2019-04-11T20:00:21.381Z,3.23
2019-04-11T20:02:48.651Z,3.60
2019-04-11T20:05:19.847Z,5.07
2019-04-11T20:07:48.442Z,5.03
2019-04-11T20:10:17.019Z,4.00
2019-04-11T20:12:45.652Z,3.60
2019-04-11T20:15:14.214Z,5.13
2019-04-11T20:17:44.473Z,4.57
2019-04-11T20:20:13.467Z,3.60
2019-04-11T20:22:41.991Z,4.10
2019-04-11T20:25:10.685Z,4.07
2019-04-11T20:27:39.742Z,4.70
2019-04-11T20:30:08.791Z,4.13
2019-04-11T20:32:37.412Z,3.83
2019-04-11T20:35:09.478Z,4.30
2019-04-11T20:37:39.331Z,3.73
2019-04-11T20:40:07.854Z,3.20
2019-04-11T20:42:36.471Z,3.40
2019-04-11T20:45:08.551Z,3.20
2019-04-11T20:47:37.223Z,3.10
2019-04-11T20:50:07.724Z,3.70
2019-04-11T20:52:36.758Z,3.77
2019-04-11T20:55:08.886Z,4.10
2019-04-11T20:57:36.902Z,3.27
2019-04-11T21:00:12.318Z,4.13
2019-04-11T21:02:40.377Z,4.37
2019-04-11T21:05:09.089Z,4.20
2019-04-11T21:07:39.141Z,4.00
2019-04-11T21:10:07.959Z,3.73
2019-04-11T21:12:37.278Z,4.30
2019-04-11T21:15:08.158Z,4.27
2019-04-11T21:17:36.832Z,4.30
2019-04-11T21:20:08.234Z,3.73
2019-04-11T21:22:36.805Z,4.97
2019-04-11T21:25:06.240Z,5.57
2019-04-11T21:27:34.858Z,3.93
2019-04-11T21:30:04.993Z,3.73
2019-04-11T21:32:33.609Z,3.50
2019-04-11T21:35:02.955Z,4.20
2019-04-11T21:37:31.741Z,3.70
2019-04-11T21:40:00.322Z,4.07
2019-04-11T21:42:28.874Z,3.77
2019-04-11T21:44:57.481Z,3.83
2019-04-11T21:47:26.108Z,3.43
2019-04-11T21:49:54.648Z,3.23
2019-04-11T21:52:23.362Z,4.33
2019-04-11T21:54:51.984Z,3.97
2019-04-11T21:57:20.626Z,3.10
2019-04-11T21:59:51.655Z,3.60
2019-04-11T22:02:24.004Z,3.30
2019-04-11T22:04:50.390Z,3.53
2019-04-11T22:07:19.049Z,3.50
2019-04-11T22:09:47.783Z,3.07
2019-04-11T22:12:16.477Z,3.30
2019-04-11T22:14:45.110Z,4.57
2019-04-11T22:17:15.847Z,3.27
2019-04-11T22:19:45.840Z,4.43
2019-04-11T22:22:14.390Z,3.20
2019-04-11T22:24:42.936Z,3.53
2019-04-11T22:27:11.573Z,2.80
2019-04-11T22:29:40.173Z,2.90
2019-04-11T22:32:08.795Z,3.47
2019-04-11T22:34:42.059Z,3.57
2019-04-11T22:37:10.775Z,2.97
2019-04-11T22:39:39.339Z,2.70
2019-04-11T22:42:08.135Z,2.73
2019-04-11T22:44:38.015Z,2.97
2019-04-11T22:47:08.011Z,3.07
2019-04-11T22:49:39.417Z,2.57
2019-04-11T22:52:08.126Z,2.60
2019-04-11T22:54:36.747Z,3.00
2019-04-11T22:57:05.502Z,2.70
2019-04-11T22:59:34.239Z,3.00
2019-04-11T23:02:10.578Z,3.13
2019-04-11T23:04:39.151Z,3.20
2019-04-11T23:07:07.763Z,3.37
2019-04-11T23:09:36.536Z,3.33
2019-04-11T23:12:05.149Z,3.57
2019-04-11T23:14:33.887Z,4.07
2019-04-11T23:17:02.583Z,3.53
2019-04-11T23:19:31.206Z,3.53
2019-04-11T23:21:59.833Z,3.23
2019-04-11T23:24:28.439Z,3.47
2019-04-11T23:26:57.111Z,3.47
2019-04-11T23:29:25.698Z,3.70
2019-04-11T23:31:54.261Z,3.40
2019-04-11T23:34:22.854Z,3.17
2019-04-11T23:36:51.846Z,4.43
2019-04-11T23:39:22.730Z,3.83
2019-04-11T23:41:50.674Z,4.83
2019-04-11T23:44:20.373Z,4.47
2019-04-11T23:46:51.816Z,4.40
2019-04-11T23:49:19.918Z,4.73
2019-04-11T23:51:48.474Z,5.10
2019-04-11T23:54:22.930Z,3.97
2019-04-11T23:56:47.315Z,3.80
2019-04-11T23:59:15.949Z,4.00
